Time;durP1;ratioP1;P1;durP2;ratioP2;P2;SDS_P1;SDS_P2;PMS_P1;PMS_P2;Temp;Humidity;BMP_temperature;BMP_pressure;BME280_temperature;BME280_humidity;BME280_pressure;Samples;Min_cycle;Max_cycle;Signal;HPM_P1;HPM_P2
2022/09/18 00:01:21;;;;;;;3.53;0.83;;;12.10;99.90;;;;;;5023982;28;20223;-53
2022/09/18 00:03:48;;;;;;;3.43;1.00;;;12.10;99.90;;;;;;5020934;28;20565;-55
2022/09/18 00:06:18;;;;;;;5.77;0.77;;;12.10;99.90;;;;;;5020901;28;20264;-54
2022/09/18 00:08:47;;;;;;;6.67;0.90;;;12.10;99.90;;;;;;5027895;28;20594;-54
2022/09/18 00:11:16;;;;;;;7.50;0.97;;;12.20;99.90;;;;;;5027346;28;20193;-53
2022/09/18 00:13:43;;;;;;;2.87;1.20;;;12.10;99.90;;;;;;5025654;28;20218;-54
2022/09/18 00:16:12;;;;;;;3.23;1.00;;;12.10;99.90;;;;;;5029660;28;20208;-54
2022/09/18 00:18:39;;;;;;;5.00;0.83;;;12.10;99.90;;;;;;5029630;28;20195;-54
2022/09/18 00:21:15;;;;;;;4.47;1.10;;;12.10;99.90;;;;;;5021561;28;20540;-54
2022/09/18 00:23:43;;;;;;;5.37;1.40;;;12.10;99.90;;;;;;5023481;28;20200;-54
2022/09/18 00:26:11;;;;;;;4.77;0.90;;;12.10;99.90;;;;;;5005151;28;20247;-54
2022/09/18 00:28:38;;;;;;;4.30;1.07;;;12.10;99.90;;;;;;5018723;28;20242;-53
2022/09/18 00:31:11;;;;;;;4.23;0.90;;;12.10;99.90;;;;;;5017425;28;20198;-53
2022/09/18 00:33:39;;;;;;;4.63;1.03;;;12.20;99.90;;;;;;5027553;28;20195;-53
2022/09/18 00:36:09;;;;;;;2.70;0.90;;;12.30;99.90;;;;;;5025712;28;20207;-52
2022/09/18 00:38:36;;;;;;;4.57;1.17;;;12.40;99.90;;;;;;5042680;28;20198;-53
2022/09/18 00:41:06;;;;;;;4.37;0.93;;;12.40;99.90;;;;;;5028188;28;20193;-53
2022/09/18 00:43:35;;;;;;;2.83;1.07;;;12.50;99.90;;;;;;5034228;28;20204;-53
2022/09/18 00:46:16;;;;;;;4.53;1.43;;;12.50;99.90;;;;;;5032503;28;20660;-53
2022/09/18 00:49:05;;;;;;;2.83;0.67;;;12.50;99.90;;;;;;5031541;28;20290;-53
2022/09/18 00:51:35;;;;;;;4.23;1.00;;;12.50;99.90;;;;;;5027829;28;20298;-53
2022/09/18 00:54:39;;;;;;;3.30;0.93;;;12.60;99.90;;;;;;5027757;28;20351;-54
2022/09/18 00:57:17;;;;;;;6.80;1.37;;;12.40;99.90;;;;;;5029074;28;20306;-53
2022/09/18 00:59:48;;;;;;;3.57;0.93;;;12.30;99.90;;;;;;5028972;28;20648;-54
2022/09/18 01:02:15;;;;;;;3.00;0.60;;;12.50;99.90;;;;;;5029108;28;20313;-57
2022/09/18 01:04:42;;;;;;;1.13;0.57;;;12.50;99.90;;;;;;5030175;28;20274;-53
2022/09/18 01:07:34;;;;;;;4.33;0.90;;;12.40;99.90;;;;;;5031553;28;20660;-53
2022/09/18 01:10:35;;;;;;;3.33;1.03;;;12.50;99.90;;;;;;5031244;28;20646;-54
2022/09/18 01:13:14;;;;;;;4.33;0.63;;;12.40;99.90;;;;;;5030553;28;20219;-54
2022/09/18 01:16:13;;;;;;;5.70;0.80;;;12.20;99.90;;;;;;5031889;28;20199;-54
2022/09/18 01:19:09;;;;;;;6.23;0.53;;;12.20;99.90;;;;;;5012452;28;20263;-54
2022/09/18 01:22:06;;;;;;;3.40;0.77;;;12.20;99.90;;;;;;5022574;28;20262;-54
2022/09/18 01:24:54;;;;;;;1.30;0.60;;;12.30;99.90;;;;;;5028242;28;20206;-54
2022/09/18 01:27:33;;;;;;;2.57;0.63;;;12.30;99.90;;;;;;5030558;28;20608;-54
2022/09/18 01:30:06;;;;;;;3.23;0.77;;;12.10;99.90;;;;;;5018865;28;20242;-54
2022/09/18 01:32:53;;;;;;;4.70;0.70;;;12.20;99.90;;;;;;5031170;28;20271;-54
2022/09/18 01:35:44;;;;;;;2.63;0.70;;;12.10;99.90;;;;;;5030954;28;20686;-53
2022/09/18 01:38:25;;;;;;;3.00;0.70;;;12.20;99.90;;;;;;5028778;28;20195;-53
2022/09/18 01:41:13;;;;;;;3.30;0.77;;;12.10;99.90;;;;;;5030878;28;20283;-53
2022/09/18 01:43:42;;;;;;;2.67;1.03;;;12.20;99.90;;;;;;5026682;28;20206;-53
2022/09/18 01:46:14;;;;;;;4.63;0.97;;;12.30;99.90;;;;;;5031008;28;20280;-55
2022/09/18 01:48:47;;;;;;;3.20;0.50;;;12.20;99.90;;;;;;5030770;28;20678;-53
2022/09/18 01:51:22;;;;;;;3.87;0.93;;;12.20;99.90;;;;;;5025694;28;20641;-53
2022/09/18 01:53:55;;;;;;;2.87;0.80;;;12.30;99.90;;;;;;5030544;28;20206;-54
2022/09/18 01:56:27;;;;;;;2.93;1.00;;;12.30;99.90;;;;;;5029758;28;20231;-54
2022/09/18 01:58:58;;;;;;;6.37;1.03;;;12.20;99.90;;;;;;5025996;28;20200;-55
2022/09/18 02:01:29;;;;;;;4.57;0.70;;;12.20;99.90;;;;;;5025762;28;20303;-54
2022/09/18 02:04:03;;;;;;;3.50;0.80;;;12.10;99.90;;;;;;5030249;28;20703;-54
2022/09/18 02:06:35;;;;;;;4.30;0.67;;;12.10;99.90;;;;;;5027452;28;20267;-54
2022/09/18 02:09:03;;;;;;;5.23;1.07;;;12.20;99.90;;;;;;5022257;28;20274;-52
2022/09/18 02:11:32;;;;;;;5.07;1.20;;;12.20;99.90;;;;;;5022391;28;20218;-53
2022/09/18 02:14:11;;;;;;;4.37;1.23;;;12.10;99.90;;;;;;5026242;28;20207;-54
2022/09/18 02:16:50;;;;;;;4.10;1.20;;;12.20;99.90;;;;;;5022082;28;20204;-54
2022/09/18 02:19:20;;;;;;;4.63;1.10;;;12.30;99.90;;;;;;5029682;28;20191;-54
2022/09/18 02:21:48;;;;;;;5.10;1.60;;;12.40;99.90;;;;;;5031333;28;20253;-54
2022/09/18 02:24:19;;;;;;;4.47;1.20;;;12.40;99.90;;;;;;5029402;28;20194;-53
2022/09/18 02:26:48;;;;;;;6.70;1.27;;;12.20;99.90;;;;;;5028863;28;20224;-54
2022/09/18 02:29:19;;;;;;;3.10;1.13;;;12.20;99.90;;;;;;5031380;28;20192;-54
2022/09/18 02:31:47;;;;;;;4.60;1.47;;;12.20;99.90;;;;;;5030044;28;20290;-53
2022/09/18 02:34:15;;;;;;;6.10;1.57;;;12.10;99.90;;;;;;5028272;28;20758;-54
2022/09/18 02:36:46;;;;;;;4.77;1.30;;;12.20;99.90;;;;;;5031838;28;20265;-54
2022/09/18 02:39:37;;;;;;;3.67;0.93;;;12.20;99.90;;;;;;5029318;28;20282;-54
2022/09/18 02:42:35;;;;;;;4.77;1.20;;;12.20;99.90;;;;;;5027910;28;20648;-54
2022/09/18 02:45:23;;;;;;;3.67;1.17;;;12.30;99.90;;;;;;5026847;28;20214;-52
2022/09/18 02:48:02;;;;;;;5.10;1.00;;;12.20;99.90;;;;;;5023894;28;20204;-53
2022/09/18 02:50:59;;;;;;;5.80;1.10;;;12.20;99.90;;;;;;5028170;28;20211;-52
2022/09/18 02:53:41;;;;;;;4.53;0.70;;;12.20;99.90;;;;;;5029066;28;20681;-53
2022/09/18 02:56:45;;;;;;;3.47;1.00;;;12.20;99.90;;;;;;5028292;28;20415;-54
2022/09/18 02:59:15;;;;;;;5.17;1.20;;;12.20;99.90;;;;;;5022631;28;20253;-54
2022/09/18 03:01:44;;;;;;;5.00;1.00;;;12.10;99.90;;;;;;5025754;28;20825;-58
2022/09/18 03:04:13;;;;;;;3.27;1.20;;;12.10;99.90;;;;;;5027262;28;20196;-53
2022/09/18 03:06:40;;;;;;;3.57;1.00;;;12.10;99.90;;;;;;5027037;28;20239;-52
2022/09/18 03:09:07;;;;;;;3.60;1.10;;;12.10;99.90;;;;;;5023194;28;20643;-53
2022/09/18 03:11:35;;;;;;;4.70;0.90;;;12.10;99.90;;;;;;5027917;28;20730;-53
2022/09/18 03:14:03;;;;;;;1.70;0.90;;;12.00;99.90;;;;;;5024046;28;20719;-53
2022/09/18 03:16:30;;;;;;;5.80;0.80;;;12.00;99.90;;;;;;5022897;28;20199;-53
2022/09/18 03:18:57;;;;;;;5.60;0.90;;;12.10;99.90;;;;;;5023676;28;20212;-53
2022/09/18 03:21:24;;;;;;;5.90;0.90;;;12.20;99.90;;;;;;5021038;28;20201;-54
2022/09/18 03:23:51;;;;;;;3.77;0.77;;;12.10;99.90;;;;;;5023479;28;20667;-54
2022/09/18 03:26:18;;;;;;;2.87;0.80;;;12.20;99.90;;;;;;5024242;28;20717;-53
2022/09/18 03:28:44;;;;;;;8.23;0.97;;;12.20;99.90;;;;;;5022538;28;20203;-54
2022/09/18 03:31:11;;;;;;;1.80;1.00;;;12.20;99.90;;;;;;5023314;28;20559;-54
2022/09/18 03:33:39;;;;;;;5.93;1.27;;;12.30;99.90;;;;;;5022182;28;20214;-53
2022/09/18 03:36:07;;;;;;;2.93;0.80;;;12.30;99.90;;;;;;5022212;28;20193;-54
2022/09/18 03:38:36;;;;;;;5.80;1.07;;;12.20;99.90;;;;;;5022272;28;20695;-52
2022/09/18 03:41:03;;;;;;;10.83;1.53;;;12.30;99.90;;;;;;5020947;28;20200;-52
2022/09/18 03:43:30;;;;;;;3.47;1.10;;;12.40;99.90;;;;;;5022683;28;20203;-54
2022/09/18 03:45:57;;;;;;;4.47;0.80;;;12.40;99.90;;;;;;5021886;28;20653;-54
2022/09/18 03:48:24;;;;;;;5.17;0.60;;;12.30;99.90;;;;;;5021332;28;20228;-54
2022/09/18 03:50:51;;;;;;;2.70;0.70;;;12.30;99.90;;;;;;5020923;28;20668;-53
2022/09/18 03:53:18;;;;;;;3.20;0.50;;;12.40;99.90;;;;;;5023093;28;20216;-52
2022/09/18 03:55:47;;;;;;;5.47;0.80;;;12.30;99.90;;;;;;5024980;28;20199;-56
2022/09/18 03:58:14;;;;;;;3.90;0.80;;;12.30;99.90;;;;;;5019404;28;20204;-54
2022/09/18 04:00:41;;;;;;;2.87;0.60;;;12.40;99.90;;;;;;5021143;28;20224;-54
2022/09/18 04:03:08;;;;;;;2.03;0.70;;;12.40;99.90;;;;;;5018244;28;20717;-54
2022/09/18 04:05:35;;;;;;;6.73;1.10;;;12.40;99.90;;;;;;5024558;28;20708;-54
2022/09/18 04:08:04;;;;;;;3.17;0.70;;;12.40;99.90;;;;;;5020757;28;20737;-53
2022/09/18 04:10:31;;;;;;;3.17;0.67;;;12.40;99.90;;;;;;5020496;28;20203;-55
2022/09/18 04:12:59;;;;;;;2.43;0.70;;;12.50;99.90;;;;;;5024065;28;21215;-53
2022/09/18 04:15:25;;;;;;;4.87;0.60;;;12.40;99.90;;;;;;5027089;28;20231;-53
2022/09/18 04:17:52;;;;;;;6.40;0.90;;;12.30;99.90;;;;;;5023965;28;20219;-53
2022/09/18 04:20:19;;;;;;;3.40;0.70;;;12.30;99.90;;;;;;5027232;28;20204;-53
2022/09/18 04:22:46;;;;;;;3.63;0.67;;;12.30;99.90;;;;;;5023516;28;20197;-53
2022/09/18 04:25:13;;;;;;;4.03;0.73;;;12.30;99.90;;;;;;5029496;28;20208;-53
2022/09/18 04:27:40;;;;;;;5.27;0.83;;;12.30;99.90;;;;;;5029576;28;20206;-54
2022/09/18 04:30:07;;;;;;;4.37;0.60;;;12.30;99.90;;;;;;5025070;28;20306;-54
2022/09/18 04:32:34;;;;;;;2.77;0.77;;;12.30;99.90;;;;;;5027591;28;20709;-54
2022/09/18 04:35:01;;;;;;;1.57;0.47;;;12.20;99.90;;;;;;5024694;28;20347;-52
2022/09/18 04:37:28;;;;;;;3.20;0.70;;;12.30;99.90;;;;;;5028237;28;20264;-54
2022/09/18 04:39:55;;;;;;;6.70;1.17;;;12.20;99.90;;;;;;5028427;28;20199;-52
2022/09/18 04:42:22;;;;;;;2.87;0.60;;;12.20;99.90;;;;;;5027033;28;20646;-54
2022/09/18 04:44:49;;;;;;;2.70;0.40;;;12.10;99.90;;;;;;5027688;28;20204;-53
2022/09/18 04:47:16;;;;;;;2.53;0.70;;;12.10;99.90;;;;;;5023799;28;20203;-53
2022/09/18 04:49:43;;;;;;;4.20;0.70;;;12.10;99.90;;;;;;5026680;28;20475;-54
2022/09/18 04:52:10;;;;;;;3.03;0.63;;;12.10;99.90;;;;;;5019599;28;20205;-54
2022/09/18 04:54:37;;;;;;;4.87;0.60;;;12.10;99.90;;;;;;5025220;28;20205;-53
2022/09/18 04:57:04;;;;;;;1.80;0.50;;;12.10;99.90;;;;;;5023709;28;20203;-54
2022/09/18 04:59:30;;;;;;;2.13;0.53;;;12.10;99.90;;;;;;5022611;28;20193;-55
2022/09/18 05:01:58;;;;;;;4.57;0.70;;;12.20;99.90;;;;;;5022758;28;20655;-54
2022/09/18 05:04:25;;;;;;;3.57;1.00;;;12.20;99.90;;;;;;5022824;28;20193;-54
2022/09/18 05:06:52;;;;;;;1.47;0.57;;;12.20;99.90;;;;;;5023451;28;20203;-54
2022/09/18 05:09:19;;;;;;;3.83;0.50;;;12.10;99.90;;;;;;5024001;28;20197;-54
2022/09/18 05:11:46;;;;;;;5.17;0.70;;;12.10;99.90;;;;;;5026099;28;20200;-54
2022/09/18 05:14:13;;;;;;;3.03;0.53;;;12.10;99.90;;;;;;5021567;28;20517;-53
2022/09/18 05:16:40;;;;;;;2.70;0.60;;;12.10;99.90;;;;;;5018860;28;20197;-54
2022/09/18 05:19:07;;;;;;;4.47;0.60;;;12.10;99.90;;;;;;5023417;28;20206;-54
2022/09/18 05:21:34;;;;;;;1.40;0.50;;;12.20;99.90;;;;;;5023791;28;20207;-54
2022/09/18 05:24:01;;;;;;;8.93;0.80;;;12.30;99.90;;;;;;5023476;28;20564;-54
2022/09/18 05:26:30;;;;;;;4.77;0.37;;;12.30;99.90;;;;;;5022834;28;20204;-55
2022/09/18 05:28:56;;;;;;;3.33;0.50;;;12.40;99.90;;;;;;5029059;28;20609;-53
2022/09/18 05:31:23;;;;;;;8.27;0.87;;;12.40;99.90;;;;;;5027899;28;20206;-54
2022/09/18 05:33:50;;;;;;;3.70;0.70;;;12.40;99.90;;;;;;5023939;28;20582;-55
2022/09/18 05:36:17;;;;;;;1.33;0.57;;;12.40;99.90;;;;;;5024382;28;20224;-53
2022/09/18 05:38:44;;;;;;;1.90;0.37;;;12.40;99.90;;;;;;5021716;28;20208;-53
2022/09/18 05:41:11;;;;;;;4.00;0.50;;;12.40;99.90;;;;;;5020460;28;20197;-53
2022/09/18 05:43:38;;;;;;;6.63;0.80;;;12.40;99.90;;;;;;5023090;28;20204;-55
2022/09/18 05:46:05;;;;;;;4.30;0.70;;;12.60;99.90;;;;;;5021288;28;20209;-55
2022/09/18 05:48:32;;;;;;;3.50;0.70;;;12.50;99.90;;;;;;5024486;28;20206;-54
2022/09/18 05:50:58;;;;;;;2.80;0.70;;;12.50;99.90;;;;;;5023925;28;20677;-54
2022/09/18 05:53:25;;;;;;;4.60;0.87;;;12.60;99.90;;;;;;5024242;28;20583;-57
2022/09/18 05:55:52;;;;;;;2.13;0.70;;;12.60;99.90;;;;;;5019047;28;20203;-54
2022/09/18 05:58:20;;;;;;;4.27;0.83;;;12.60;99.90;;;;;;5023662;28;20298;-55
2022/09/18 06:00:47;;;;;;;3.53;0.47;;;12.60;99.90;;;;;;5017131;28;20216;-55
2022/09/18 06:03:15;;;;;;;7.00;0.60;;;12.60;99.90;;;;;;5024690;28;20207;-54
2022/09/18 06:05:49;;;;;;;2.50;0.50;;;12.70;99.90;;;;;;5024308;28;20725;-54
2022/09/18 06:08:16;;;;;;;4.07;1.27;;;12.70;99.90;;;;;;5023489;28;20214;-53
2022/09/18 06:10:43;;;;;;;4.30;0.67;;;12.80;99.90;;;;;;5027054;28;20200;-53
2022/09/18 06:13:14;;;;;;;6.90;0.60;;;12.80;99.90;;;;;;5023453;28;20673;-53
2022/09/18 06:15:46;;;;;;;2.47;0.50;;;12.70;99.90;;;;;;5023294;28;20219;-54
2022/09/18 06:18:14;;;;;;;2.73;0.50;;;12.60;99.90;;;;;;5024649;28;20203;-54
2022/09/18 06:20:41;;;;;;;3.50;0.57;;;12.70;99.90;;;;;;5022958;28;20204;-53
2022/09/18 06:23:08;;;;;;;3.77;0.50;;;12.80;99.90;;;;;;5023309;28;20257;-53
2022/09/18 06:25:35;;;;;;;8.30;0.60;;;12.80;99.90;;;;;;5025709;28;20210;-54
2022/09/18 06:28:05;;;;;;;4.37;0.80;;;12.70;99.90;;;;;;5028292;28;20235;-52
2022/09/18 06:30:34;;;;;;;4.77;0.50;;;12.70;99.90;;;;;;5028663;28;20219;-53
2022/09/18 06:33:04;;;;;;;5.73;0.80;;;12.70;99.90;;;;;;5028164;28;20265;-53
2022/09/18 06:35:35;;;;;;;2.03;0.50;;;12.70;99.90;;;;;;5024923;28;20220;-56
2022/09/18 06:38:03;;;;;;;1.53;0.63;;;12.70;99.90;;;;;;5027191;28;20197;-52
2022/09/18 06:40:31;;;;;;;6.23;1.00;;;12.70;99.90;;;;;;5027591;28;20203;-54
2022/09/18 06:43:03;;;;;;;5.63;0.50;;;12.70;99.90;;;;;;5025590;28;20590;-53
2022/09/18 06:45:30;;;;;;;5.10;1.03;;;12.70;99.90;;;;;;5027855;28;20554;-54
2022/09/18 06:48:02;;;;;;;5.73;0.60;;;12.70;99.90;;;;;;5023123;28;20302;-53
2022/09/18 06:50:29;;;;;;;3.37;0.50;;;12.60;99.90;;;;;;5026612;28;20687;-54
2022/09/18 06:53:05;;;;;;;3.50;0.60;;;12.60;99.90;;;;;;5027375;28;20256;-54
2022/09/18 06:55:38;;;;;;;1.97;0.50;;;12.60;99.90;;;;;;5026224;28;20621;-53
2022/09/18 06:58:05;;;;;;;2.50;0.77;;;12.60;99.90;;;;;;5021930;28;20776;-52
2022/09/18 07:00:31;;;;;;;2.77;0.50;;;12.60;99.90;;;;;;5023506;28;20240;-54
2022/09/18 07:03:00;;;;;;;2.77;0.50;;;12.50;99.90;;;;;;5023678;28;20199;-54
2022/09/18 07:05:29;;;;;;;3.37;1.23;;;12.60;99.90;;;;;;5023080;28;20593;-54
2022/09/18 07:07:57;;;;;;;3.00;0.50;;;12.80;99.90;;;;;;5022303;28;20193;-54
2022/09/18 07:10:25;;;;;;;1.53;0.60;;;12.80;99.90;;;;;;5024632;28;20619;-53
2022/09/18 07:12:56;;;;;;;5.20;0.77;;;12.70;99.90;;;;;;5021377;28;20203;-53
2022/09/18 07:15:23;;;;;;;2.80;0.77;;;12.80;99.90;;;;;;5016405;28;20219;-54
2022/09/18 07:17:51;;;;;;;3.30;0.77;;;12.80;99.90;;;;;;5024829;28;20197;-54
2022/09/18 07:20:19;;;;;;;2.23;0.60;;;12.70;99.90;;;;;;5019008;28;20196;-54
2022/09/18 07:22:54;;;;;;;5.20;0.63;;;12.60;99.90;;;;;;5020604;28;20199;-54
2022/09/18 07:25:21;;;;;;;3.27;1.10;;;12.60;99.90;;;;;;5022176;28;20238;-54
2022/09/18 07:27:49;;;;;;;5.30;0.70;;;12.50;99.90;;;;;;5026107;28;20227;-53
2022/09/18 07:30:16;;;;;;;4.23;0.80;;;12.60;99.90;;;;;;5025566;28;20199;-54
2022/09/18 07:32:43;;;;;;;6.20;0.70;;;12.60;99.90;;;;;;5028511;28;20193;-53
2022/09/18 07:35:11;;;;;;;3.90;0.73;;;12.70;99.90;;;;;;5023578;28;20265;-53
2022/09/18 07:37:38;;;;;;;7.33;0.90;;;12.70;99.90;;;;;;5025299;28;20199;-54
2022/09/18 07:40:07;;;;;;;7.40;0.87;;;12.80;99.90;;;;;;4658604;28;10000627;-52
2022/09/18 07:42:34;;;;;;;4.10;0.90;;;12.80;99.90;;;;;;5015292;28;20208;-52
2022/09/18 07:45:01;;;;;;;4.33;0.90;;;12.80;99.90;;;;;;5019775;28;20576;-53
2022/09/18 07:47:28;;;;;;;5.27;0.90;;;12.80;99.90;;;;;;5020025;28;20245;-54
2022/09/18 07:49:55;;;;;;;3.17;0.80;;;12.80;99.90;;;;;;5029205;28;20610;-52
2022/09/18 07:52:22;;;;;;;6.47;0.90;;;12.90;99.90;;;;;;5028747;28;20652;-54
2022/09/18 07:54:49;;;;;;;4.13;0.70;;;13.00;99.90;;;;;;5026904;28;20579;-53
2022/09/18 07:57:16;;;;;;;3.70;0.73;;;13.10;99.90;;;;;;5027649;28;20250;-56
2022/09/18 07:59:43;;;;;;;6.70;0.83;;;13.10;99.90;;;;;;5025623;28;20238;-54
2022/09/18 08:02:11;;;;;;;6.33;1.17;;;13.10;99.90;;;;;;5030093;28;20223;-55
2022/09/18 08:04:38;;;;;;;3.77;0.73;;;13.10;99.90;;;;;;5028882;28;20224;-54
2022/09/18 08:07:05;;;;;;;3.13;0.87;;;13.00;99.90;;;;;;5029111;28;20246;-54
2022/09/18 08:09:32;;;;;;;2.47;0.80;;;13.00;99.90;;;;;;5027126;28;20214;-54
2022/09/18 08:11:59;;;;;;;2.10;0.70;;;13.10;99.90;;;;;;5043445;28;20648;-54
2022/09/18 08:14:26;;;;;;;5.17;1.00;;;13.20;99.90;;;;;;5026552;28;20216;-54
2022/09/18 08:16:55;;;;;;;4.83;1.30;;;13.30;99.90;;;;;;5030420;28;20216;-54
2022/09/18 08:19:22;;;;;;;2.30;1.00;;;13.30;99.90;;;;;;5033952;28;20562;-53
2022/09/18 08:21:49;;;;;;;6.13;1.23;;;13.30;99.90;;;;;;5031230;28;21121;-53
2022/09/18 08:24:16;;;;;;;4.47;1.00;;;13.30;99.90;;;;;;5031756;28;20196;-53
2022/09/18 08:26:44;;;;;;;3.60;1.10;;;13.50;99.90;;;;;;5031515;28;20221;-53
2022/09/18 08:29:17;;;;;;;2.77;0.83;;;13.40;99.90;;;;;;5030186;28;20250;-54
2022/09/18 08:31:45;;;;;;;4.43;0.70;;;13.40;99.90;;;;;;5029998;28;21129;-54
2022/09/18 08:34:12;;;;;;;5.67;0.90;;;13.60;99.90;;;;;;5033247;28;20217;-54
2022/09/18 08:36:39;;;;;;;2.97;0.83;;;13.60;99.90;;;;;;5033412;28;20196;-56
2022/09/18 08:39:06;;;;;;;2.97;0.87;;;13.70;99.90;;;;;;5033183;28;20212;-53
2022/09/18 08:41:45;;;;;;;4.47;0.80;;;13.70;99.90;;;;;;5030067;28;20204;-53
2022/09/18 08:44:23;;;;;;;5.83;0.77;;;13.70;99.90;;;;;;5031110;28;20204;-53
2022/09/18 08:47:00;;;;;;;4.80;0.80;;;13.80;99.90;;;;;;5026318;28;20618;-53
2022/09/18 08:50:01;;;;;;;4.53;0.80;;;13.70;99.90;;;;;;5028591;28;20687;-55
2022/09/18 08:52:33;;;;;;;3.33;0.83;;;13.50;99.90;;;;;;5024942;28;20200;-53
2022/09/18 08:55:05;;;;;;;4.27;0.83;;;13.80;99.90;;;;;;5025571;28;20208;-54
2022/09/18 08:57:34;;;;;;;1.00;0.50;;;13.80;99.90;;;;;;5029844;28;20203;-56
2022/09/18 09:00:09;;;;;;;4.93;0.80;;;14.00;99.90;;;;;;5021592;28;20269;-54
2022/09/18 09:02:45;;;;;;;2.83;0.80;;;13.90;99.90;;;;;;5026617;28;20220;-53
2022/09/18 09:05:15;;;;;;;5.70;0.93;;;13.90;99.90;;;;;;5026161;28;20228;-54
2022/09/18 09:08:17;;;;;;;3.47;0.60;;;14.00;99.90;;;;;;5028175;28;20237;-53
2022/09/18 09:10:50;;;;;;;6.67;0.77;;;14.00;99.90;;;;;;5012902;28;20254;-54
2022/09/18 09:13:45;;;;;;;4.60;0.50;;;13.80;99.90;;;;;;5039845;28;20205;-54
2022/09/18 09:16:28;;;;;;;2.57;0.60;;;13.90;99.90;;;;;;5026446;28;20291;-54
2022/09/18 09:18:59;;;;;;;6.13;0.90;;;13.80;99.90;;;;;;5017462;28;20846;-54
2022/09/18 09:21:52;;;;;;;1.70;0.57;;;13.70;99.90;;;;;;5022117;28;20419;-54
2022/09/18 09:24:28;;;;;;;4.07;0.80;;;13.70;99.90;;;;;;5011488;28;20295;-54
2022/09/18 09:26:56;;;;;;;7.83;0.70;;;13.70;99.90;;;;;;5022232;28;20204;-54
2022/09/18 09:29:33;;;;;;;4.80;1.10;;;13.60;99.90;;;;;;5024272;28;20200;-53
2022/09/18 09:32:09;;;;;;;3.77;0.77;;;13.60;99.90;;;;;;5024570;28;20200;-53
2022/09/18 09:34:43;;;;;;;2.30;0.40;;;13.50;99.90;;;;;;5022706;28;20217;-54
2022/09/18 09:37:20;;;;;;;1.43;0.50;;;13.50;99.90;;;;;;5022651;28;20193;-54
2022/09/18 09:39:55;;;;;;;1.70;0.47;;;13.40;99.90;;;;;;5023103;28;20262;-55
2022/09/18 09:42:30;;;;;;;2.73;0.47;;;13.40;99.90;;;;;;5027810;28;20193;-54
2022/09/18 09:45:11;;;;;;;1.90;1.03;;;13.40;99.90;;;;;;5030011;28;20296;-54
2022/09/18 09:48:02;;;;;;;1.40;0.30;;;13.40;99.90;;;;;;5024628;28;20214;-53
2022/09/18 09:50:37;;;;;;;2.77;0.50;;;13.50;99.90;;;;;;5024869;28;20656;-59
2022/09/18 09:53:08;;;;;;;1.63;0.50;;;13.50;99.90;;;;;;5023050;28;21823;-54
2022/09/18 09:55:47;;;;;;;3.17;0.70;;;13.60;99.90;;;;;;5020427;28;20240;-53
2022/09/18 09:58:43;;;;;;;2.50;0.67;;;13.70;99.90;;;;;;5023935;28;20288;-54
2022/09/18 10:01:21;;;;;;;3.20;0.67;;;13.80;99.90;;;;;;5009440;28;20223;-54
2022/09/18 10:04:18;;;;;;;1.23;0.50;;;13.90;99.90;;;;;;5024109;28;20637;-53
2022/09/18 10:07:11;;;;;;;3.30;0.97;;;13.80;99.90;;;;;;5019655;28;20238;-54
2022/09/18 10:09:51;;;;;;;2.20;0.40;;;13.80;99.90;;;;;;5022418;28;20677;-52
2022/09/18 10:12:26;;;;;;;4.97;0.73;;;14.00;99.90;;;;;;5024501;28;20196;-53
2022/09/18 10:14:57;;;;;;;3.70;0.70;;;14.00;99.90;;;;;;5021880;28;20212;-53
2022/09/18 10:17:25;;;;;;;4.57;0.77;;;14.00;99.90;;;;;;5023028;28;20195;-53
2022/09/18 10:19:52;;;;;;;6.57;1.00;;;14.20;99.90;;;;;;5026014;28;20192;-53
2022/09/18 10:22:22;;;;;;;1.40;0.50;;;14.30;99.90;;;;;;5020790;28;20196;-53
2022/09/18 10:25:01;;;;;;;3.20;0.40;;;14.30;99.90;;;;;;5016951;28;20208;-53
2022/09/18 10:27:28;;;;;;;1.90;0.30;;;14.20;99.90;;;;;;5020763;28;20210;-52
2022/09/18 10:29:54;;;;;;;3.47;0.60;;;14.20;99.90;;;;;;5018615;28;20225;-53
2022/09/18 10:32:37;;;;;;;2.20;0.60;;;14.20;99.90;;;;;;5017476;28;20659;-53
2022/09/18 10:35:28;;;;;;;3.30;0.60;;;14.20;99.90;;;;;;5021187;28;20212;-52
2022/09/18 10:37:56;;;;;;;1.10;0.50;;;13.80;99.90;;;;;;5017169;28;20636;-53
2022/09/18 10:40:35;;;;;;;1.57;0.40;;;13.80;99.90;;;;;;5021420;28;20664;-53
2022/09/18 10:43:03;;;;;;;1.93;0.90;;;13.60;99.90;;;;;;5019199;28;20611;-56
2022/09/18 10:45:36;;;;;;;1.37;0.50;;;13.60;99.90;;;;;;5024515;28;20232;-55
2022/09/18 10:48:06;;;;;;;1.50;0.70;;;13.40;99.90;;;;;;5022256;28;20281;-55
2022/09/18 10:50:33;;;;;;;3.47;0.60;;;13.40;99.90;;;;;;5023673;28;20204;-53
2022/09/18 10:53:26;;;;;;;3.67;0.50;;;13.30;99.90;;;;;;5023621;28;20650;-54
2022/09/18 10:55:53;;;;;;;2.00;0.80;;;13.30;99.90;;;;;;5022660;28;20224;-54
2022/09/18 10:58:29;;;;;;;1.93;0.50;;;13.50;99.90;;;;;;5011318;28;20202;-53
2022/09/18 11:01:06;;;;;;;1.87;0.70;;;13.60;99.90;;;;;;5017762;28;20216;-53
2022/09/18 11:03:41;;;;;;;2.17;0.83;;;13.70;99.90;;;;;;5020775;28;20715;-53
2022/09/18 11:06:26;;;;;;;1.77;0.90;;;13.70;99.90;;;;;;5022245;28;20802;-54
2022/09/18 11:08:59;;;;;;;1.57;0.60;;;13.80;99.90;;;;;;5022431;28;20198;-54
2022/09/18 11:11:33;;;;;;;1.90;0.97;;;13.80;99.90;;;;;;5015493;28;20205;-53
2022/09/18 11:14:05;;;;;;;4.23;0.70;;;13.90;99.90;;;;;;5018714;28;22006;-54
2022/09/18 11:16:35;;;;;;;4.40;0.80;;;13.90;99.90;;;;;;5022674;28;20484;-54
2022/09/18 11:19:15;;;;;;;2.90;0.70;;;14.00;99.90;;;;;;5021462;28;20286;-54
2022/09/18 11:21:47;;;;;;;3.70;0.73;;;13.90;99.90;;;;;;5020770;28;20209;-53
2022/09/18 11:24:26;;;;;;;1.90;0.60;;;13.80;99.90;;;;;;5015712;28;22480;-53
2022/09/18 11:27:01;;;;;;;4.13;0.70;;;13.80;99.90;;;;;;5018948;28;20212;-53
2022/09/18 11:29:35;;;;;;;2.07;0.50;;;13.80;99.90;;;;;;5019240;28;20285;-54
2022/09/18 11:32:28;;;;;;;2.47;1.10;;;13.90;99.90;;;;;;5016339;28;20197;-54
2022/09/18 11:35:02;;;;;;;6.33;0.80;;;13.70;99.90;;;;;;5018403;28;20301;-53
2022/09/18 11:38:06;;;;;;;1.90;0.60;;;13.70;99.90;;;;;;5018236;28;20275;-54
2022/09/18 11:40:43;;;;;;;3.53;0.60;;;13.70;99.90;;;;;;4962197;28;20242;-54
2022/09/18 11:43:23;;;;;;;5.70;1.10;;;13.60;99.90;;;;;;4962596;28;20227;-54
2022/09/18 11:46:05;;;;;;;4.83;0.87;;;13.70;99.90;;;;;;4956022;28;20615;-54
2022/09/18 11:48:42;;;;;;;2.47;0.80;;;13.60;99.90;;;;;;4960861;28;20646;-54
2022/09/18 11:51:25;;;;;;;3.33;0.60;;;13.60;99.90;;;;;;4959117;28;20259;-53
2022/09/18 11:54:03;;;;;;;3.83;0.60;;;13.60;99.90;;;;;;4958928;28;20679;-53
2022/09/18 11:56:33;;;;;;;3.00;0.73;;;13.50;99.90;;;;;;4959748;28;20198;-54
2022/09/18 11:59:21;;;;;;;3.20;0.63;;;13.50;99.90;;;;;;4961859;28;20596;-54
2022/09/18 12:01:55;;;;;;;3.43;0.83;;;13.30;99.90;;;;;;4957742;28;20215;-53
2022/09/18 12:04:35;;;;;;;2.63;0.60;;;13.30;99.90;;;;;;4961852;28;20191;-54
2022/09/18 12:07:20;;;;;;;4.60;0.60;;;13.20;99.90;;;;;;4961192;28;20230;-53
2022/09/18 12:10:28;;;;;;;2.10;0.70;;;13.20;99.90;;;;;;4956357;28;20323;-55
2022/09/18 12:13:22;;;;;;;4.63;0.97;;;13.20;99.90;;;;;;4960897;28;20200;-55
2022/09/18 12:15:57;;;;;;;2.17;0.90;;;13.30;99.90;;;;;;5023527;28;20303;-54
2022/09/18 12:18:33;;;;;;;2.63;0.60;;;13.20;99.90;;;;;;5020047;28;20217;-55
2022/09/18 12:21:08;;;;;;;1.97;0.53;;;13.10;99.90;;;;;;5021972;28;20288;-54
2022/09/18 12:23:35;;;;;;;2.00;0.47;;;13.10;99.90;;;;;;5018301;28;20222;-54
2022/09/18 12:26:14;;;;;;;1.13;0.50;;;13.10;99.90;;;;;;5014002;28;20242;-54
2022/09/18 12:28:59;;;;;;;2.77;0.93;;;13.00;99.90;;;;;;5021215;28;20621;-53
2022/09/18 12:31:44;;;;;;;5.30;0.80;;;13.10;99.90;;;;;;5019509;28;20243;-54
2022/09/18 12:34:29;;;;;;;3.80;0.80;;;13.10;99.90;;;;;;5017830;28;20203;-54
2022/09/18 12:37:10;;;;;;;3.53;0.70;;;13.10;99.90;;;;;;5018392;28;20233;-53
2022/09/18 12:39:51;;;;;;;2.40;0.57;;;13.30;99.90;;;;;;5020042;28;20209;-53
2022/09/18 12:42:29;;;;;;;2.10;0.50;;;13.10;99.90;;;;;;5020079;28;20214;-54
2022/09/18 12:45:23;;;;;;;2.43;0.40;;;13.30;99.90;;;;;;5021291;28;20237;-52
2022/09/18 12:48:17;;;;;;;3.83;0.50;;;13.40;99.90;;;;;;5021029;28;20951;-54
2022/09/18 12:51:06;;;;;;;1.33;0.60;;;13.40;99.90;;;;;;5020881;28;20214;-53
2022/09/18 12:53:34;;;;;;;1.17;0.57;;;13.30;99.90;;;;;;5020516;28;20832;-52
2022/09/18 12:56:19;;;;;;;2.33;0.53;;;13.20;99.90;;;;;;5029024;28;20226;-53
2022/09/18 12:58:49;;;;;;;2.63;0.50;;;13.20;99.90;;;;;;5020650;28;20290;-54
2022/09/18 13:01:30;;;;;;;1.00;0.60;;;13.20;99.90;;;;;;5021081;28;20270;-55
2022/09/18 13:04:05;;;;;;;0.50;0.30;;;13.10;99.90;;;;;;5019287;28;20209;-54
2022/09/18 13:06:42;;;;;;;2.67;0.33;;;13.00;99.90;;;;;;5022258;28;21128;-54
2022/09/18 13:09:23;;;;;;;0.93;0.40;;;12.90;99.90;;;;;;5028770;28;20620;-53
2022/09/18 13:12:05;;;;;;;1.53;0.50;;;13.00;99.90;;;;;;5027099;28;20202;-53
2022/09/18 13:14:39;;;;;;;2.20;0.40;;;12.90;99.90;;;;;;5026018;28;20610;-54
2022/09/18 13:17:23;;;;;;;0.67;0.30;;;13.00;99.90;;;;;;5024282;28;20199;-54